Zeballos, Canada
Current Conditions -  °F | °C
As of 6:00 PM on Thursday 20 Nov 2014 (Local Time) from CYZT Reporting Station
Rain Showers Rain Showers  
Wind Chill: 48°   Ceiling: 2800
Heat Index: 48°   Visibility: 15mi
Dew Point: 46°   Wind: 2mph
Humidity: 93%   Direction: NA
Pressure: 29.75"   Gusts: NA
Location:  49.98°N, 126.85°W
Report Text: CYZT 210200Z VRB02KT 15SM -SHRA FEW015 BKN028 OVC045 09/08 A2975 RMK SF1SC6SC2 SF TR SLP075
Loading
Personal Weather Stations






























Interactive Weather Map New forecast layout! Learn more

10-Day Weather Forecast

Advertisements
Track Severe Weather on mobile